createdAt,value
2022-10-09T00:01:10.124Z,72.67
2022-10-09T00:02:15.624Z,72.55
2022-10-09T00:03:17.909Z,72.66
2022-10-09T00:04:19.835Z,72.53
2022-10-09T00:05:23.122Z,72.63
2022-10-09T00:06:28.670Z,72.52
2022-10-09T00:07:30.471Z,72.63
2022-10-09T00:08:33.960Z,72.72
2022-10-09T00:09:35.971Z,72.54
2022-10-09T00:10:43.867Z,72.74
2022-10-09T00:11:45.730Z,72.74
2022-10-09T00:12:47.746Z,72.68
2022-10-09T00:13:50.932Z,72.74
2022-10-09T00:14:52.844Z,72.42
2022-10-09T00:15:54.607Z,72.66
2022-10-09T00:16:58.767Z,72.62
2022-10-09T00:18:00.571Z,72.59
2022-10-09T00:19:02.366Z,72.64
2022-10-09T00:20:04.892Z,72.49
2022-10-09T00:21:20.631Z,72.54
2022-10-09T00:22:22.514Z,72.52
2022-10-09T00:23:24.572Z,72.48
2022-10-09T00:24:26.413Z,72.33
2022-10-09T00:25:28.585Z,72.52
2022-10-09T00:26:30.829Z,72.48
2022-10-09T00:27:32.916Z,72.46
2022-10-09T00:28:38.455Z,72.25
2022-10-09T00:29:40.691Z,72.29
2022-10-09T00:30:42.591Z,72.20
2022-10-09T00:31:46.901Z,72.33
2022-10-09T00:32:49.016Z,72.24
2022-10-09T00:33:51.148Z,72.10
2022-10-09T00:34:52.920Z,72.12
2022-10-09T00:35:54.825Z,72.07
2022-10-09T00:36:58.711Z,72.03
2022-10-09T00:38:00.459Z,72.01
2022-10-09T00:39:02.321Z,72.06
2022-10-09T00:40:04.525Z,71.88
2022-10-09T00:41:07.468Z,72.02
2022-10-09T00:42:13.103Z,72.25
2022-10-09T00:43:18.498Z,72.20
2022-10-09T00:44:53.556Z,72.31
2022-10-09T00:45:56.864Z,72.38
2022-10-09T00:46:59.167Z,72.34
2022-10-09T00:48:04.396Z,72.46
2022-10-09T00:49:20.537Z,72.38
2022-10-09T00:50:26.216Z,72.46
2022-10-09T00:51:29.801Z,72.37
2022-10-09T00:52:32.641Z,72.40
2022-10-09T00:53:34.429Z,72.45
2022-10-09T00:54:38.799Z,72.44
2022-10-09T00:55:43.530Z,72.50
2022-10-09T00:56:45.649Z,72.49
2022-10-09T00:57:48.205Z,72.51
2022-10-09T00:58:53.819Z,72.53
2022-10-09T00:59:55.963Z,72.61
2022-10-09T01:00:57.830Z,72.48
2022-10-09T01:02:01.942Z,72.47
2022-10-09T01:03:04.031Z,72.48
2022-10-09T01:04:05.916Z,72.30
2022-10-09T01:05:10.267Z,72.34
2022-10-09T01:06:53.377Z,72.29
2022-10-09T01:08:09.435Z,72.57
2022-10-09T01:09:15.899Z,72.71
2022-10-09T01:10:30.375Z,72.75
2022-10-09T01:12:09.843Z,72.93
2022-10-09T01:13:16.521Z,72.95
2022-10-09T01:14:25.659Z,73.15
2022-10-09T01:15:40.943Z,73.12
2022-10-09T01:17:06.111Z,73.18
2022-10-09T01:18:16.475Z,73.09
2022-10-09T01:19:57.212Z,73.16
2022-10-09T01:21:24.692Z,73.15
2022-10-09T01:22:50.714Z,73.23
2022-10-09T01:24:08.020Z,73.27
2022-10-09T01:25:55.182Z,73.36
2022-10-09T01:27:17.917Z,73.45
2022-10-09T01:28:22.767Z,73.27
2022-10-09T01:29:31.375Z,73.40
2022-10-09T01:30:34.996Z,73.54
2022-10-09T01:31:41.851Z,73.85
2022-10-09T01:32:48.306Z,73.85
2022-10-09T01:33:51.055Z,73.85
2022-10-09T01:34:54.010Z,73.93
2022-10-09T01:35:57.799Z,73.90
2022-10-09T01:37:00.552Z,73.97
2022-10-09T01:38:03.916Z,74.06
2022-10-09T01:39:12.053Z,73.94
2022-10-09T01:40:16.797Z,73.99
2022-10-09T01:41:20.368Z,73.95
2022-10-09T01:42:25.137Z,73.95
2022-10-09T01:43:26.954Z,74.08
2022-10-09T01:44:30.450Z,74.25
2022-10-09T01:45:41.878Z,74.14
2022-10-09T01:46:44.116Z,74.14
2022-10-09T01:47:46.011Z,74.21
2022-10-09T01:49:00.900Z,74.13
2022-10-09T01:50:13.878Z,74.11
2022-10-09T01:51:17.996Z,74.23
2022-10-09T01:52:41.297Z,74.03
2022-10-09T01:53:44.225Z,74.01
2022-10-09T01:55:07.326Z,74.03
2022-10-09T01:56:19.008Z,74.02
2022-10-09T01:57:34.940Z,73.99
2022-10-09T01:58:58.646Z,74.14
2022-10-09T02:00:03.817Z,74.31
2022-10-09T02:01:17.947Z,74.14
2022-10-09T02:02:21.082Z,74.18
2022-10-09T02:03:26.823Z,74.20
2022-10-09T02:04:30.575Z,74.24
2022-10-09T02:05:33.650Z,74.01
2022-10-09T02:06:39.659Z,74.11
2022-10-09T02:07:43.673Z,74.06
2022-10-09T02:08:49.961Z,74.06
2022-10-09T02:09:53.289Z,73.94
2022-10-09T02:10:57.992Z,73.89
2022-10-09T02:12:06.841Z,73.93
2022-10-09T02:13:09.190Z,73.93
2022-10-09T02:14:11.496Z,73.96
2022-10-09T02:15:13.922Z,74.03
2022-10-09T02:16:24.961Z,73.98
2022-10-09T02:17:43.681Z,74.11
2022-10-09T02:19:08.258Z,74.18
2022-10-09T02:20:20.187Z,74.10
2022-10-09T02:21:28.522Z,74.28
2022-10-09T02:22:31.911Z,74.53
2022-10-09T02:23:36.452Z,74.44
2022-10-09T02:24:39.728Z,74.45
2022-10-09T02:25:42.046Z,74.90
2022-10-09T02:26:44.109Z,74.80
2022-10-09T02:27:46.897Z,74.75
2022-10-09T02:28:49.249Z,74.76
2022-10-09T02:29:54.535Z,74.82
2022-10-09T02:31:02.552Z,74.90
2022-10-09T02:32:04.578Z,74.96
2022-10-09T02:33:06.433Z,75.06
2022-10-09T02:34:11.307Z,75.13
2022-10-09T02:35:13.056Z,75.26
2022-10-09T02:36:14.843Z,75.23
2022-10-09T02:37:17.207Z,75.56
2022-10-09T02:38:19.048Z,75.85
2022-10-09T02:39:21.120Z,75.84
2022-10-09T02:40:23.018Z,75.90
2022-10-09T02:41:25.362Z,75.86
2022-10-09T02:42:27.133Z,76.16
2022-10-09T02:43:29.082Z,76.16
2022-10-09T02:44:31.022Z,76.03
2022-10-09T02:45:34.064Z,76.14
2022-10-09T02:46:37.405Z,76.17
2022-10-09T02:47:39.167Z,76.18
2022-10-09T02:48:44.982Z,76.19
2022-10-09T02:49:46.867Z,76.19
2022-10-09T02:50:48.821Z,76.25
2022-10-09T02:51:50.663Z,76.21
2022-10-09T02:52:52.456Z,76.17
2022-10-09T02:53:55.116Z,76.14
2022-10-09T02:54:57.030Z,76.14
2022-10-09T02:55:59.191Z,76.07
2022-10-09T02:57:01.090Z,76.10
2022-10-09T02:58:04.687Z,76.10
2022-10-09T02:59:07.061Z,76.14
2022-10-09T03:00:09.816Z,76.22
2022-10-09T03:01:12.390Z,76.14
2022-10-09T03:02:14.444Z,76.04
2022-10-09T03:03:16.660Z,75.95
2022-10-09T03:04:18.678Z,75.91
2022-10-09T03:05:20.643Z,75.80
2022-10-09T03:06:24.744Z,75.87
2022-10-09T03:07:26.871Z,75.85
2022-10-09T03:08:28.803Z,75.84
2022-10-09T03:09:33.736Z,75.77
2022-10-09T03:10:39.796Z,75.82
2022-10-09T03:11:41.593Z,75.86
2022-10-09T03:12:43.519Z,76.07
2022-10-09T03:13:46.942Z,76.02
2022-10-09T03:14:49.260Z,76.16
2022-10-09T03:15:51.312Z,76.26
2022-10-09T03:16:53.146Z,76.32
2022-10-09T03:17:54.881Z,76.38
2022-10-09T03:18:57.951Z,76.51
2022-10-09T03:19:59.694Z,76.59
2022-10-09T03:21:05.513Z,76.57
2022-10-09T03:22:07.703Z,76.68
2022-10-09T03:23:09.736Z,76.56
2022-10-09T03:24:11.600Z,76.67
2022-10-09T03:25:14.050Z,76.64
2022-10-09T03:26:18.825Z,76.74
2022-10-09T03:27:20.528Z,76.75
2022-10-09T03:28:22.366Z,76.62
2022-10-09T03:29:24.327Z,76.75
2022-10-09T03:30:26.605Z,76.68
2022-10-09T03:32:50.539Z,76.68
2022-10-09T03:33:52.809Z,76.62
2022-10-09T03:34:54.844Z,76.58
2022-10-09T03:35:56.787Z,76.56
2022-10-09T03:36:59.406Z,76.51
2022-10-09T03:38:01.195Z,76.50
2022-10-09T03:39:03.421Z,76.50
2022-10-09T03:40:06.096Z,76.51
2022-10-09T03:41:08.068Z,76.47
2022-10-09T03:42:10.127Z,76.47
2022-10-09T03:43:12.191Z,76.39
2022-10-09T03:44:13.963Z,76.35
2022-10-09T03:45:16.014Z,76.34
2022-10-09T03:46:19.937Z,76.40
2022-10-09T03:47:21.733Z,76.29
2022-10-09T03:48:23.542Z,76.36
2022-10-09T03:49:25.382Z,76.27
2022-10-09T03:50:27.516Z,76.26
2022-10-09T03:51:29.516Z,76.35
2022-10-09T03:52:31.328Z,76.38
2022-10-09T03:53:33.406Z,76.26
2022-10-09T03:54:35.371Z,76.56
2022-10-09T03:55:37.666Z,76.46
2022-10-09T03:56:39.551Z,76.47
2022-10-09T03:57:41.987Z,76.51
2022-10-09T03:58:43.773Z,76.57
2022-10-09T03:59:45.529Z,76.58
2022-10-09T04:00:52.825Z,76.62
2022-10-09T04:01:54.741Z,76.73
2022-10-09T04:02:56.709Z,76.77
2022-10-09T04:03:58.569Z,76.91
2022-10-09T04:05:00.458Z,76.95
2022-10-09T04:06:02.397Z,76.97
2022-10-09T04:07:05.318Z,77.08
2022-10-09T04:08:07.079Z,77.07
2022-10-09T04:09:09.142Z,77.28
2022-10-09T04:10:11.464Z,77.30
2022-10-09T04:11:13.270Z,77.41
2022-10-09T04:12:15.806Z,77.45
2022-10-09T04:13:17.542Z,77.67
2022-10-09T04:14:19.383Z,77.52
2022-10-09T04:15:23.906Z,77.58
2022-10-09T04:16:25.894Z,77.48
2022-10-09T04:17:28.174Z,77.44
2022-10-09T04:18:30.271Z,77.46
2022-10-09T04:19:32.411Z,77.43
2022-10-09T04:20:34.208Z,77.43
2022-10-09T04:21:36.581Z,77.43
2022-10-09T04:22:38.954Z,77.43
2022-10-09T04:23:40.901Z,77.37
2022-10-09T04:24:42.872Z,77.44
2022-10-09T04:25:45.153Z,77.49
2022-10-09T04:26:46.912Z,77.50
2022-10-09T04:27:48.861Z,77.48
2022-10-09T04:28:51.149Z,77.57
2022-10-09T04:29:53.186Z,77.57
2022-10-09T04:30:57.001Z,77.49
2022-10-09T04:31:59.145Z,77.50
2022-10-09T04:33:07.021Z,77.44
2022-10-09T04:34:11.146Z,77.51
2022-10-09T04:35:13.186Z,77.54
2022-10-09T04:36:15.156Z,77.32
2022-10-09T04:37:17.072Z,77.38
2022-10-09T04:38:20.581Z,77.21
2022-10-09T04:39:22.371Z,77.34
2022-10-09T04:40:24.234Z,77.37
2022-10-09T04:41:26.208Z,77.80
2022-10-09T04:42:28.121Z,77.65
2022-10-09T04:43:30.627Z,77.64
2022-10-09T04:44:32.743Z,77.73
2022-10-09T04:45:39.003Z,77.65
2022-10-09T04:46:42.786Z,77.59
2022-10-09T04:47:44.816Z,77.76
2022-10-09T04:48:52.506Z,77.72
2022-10-09T04:49:54.332Z,78.06
2022-10-09T04:50:56.112Z,78.12
2022-10-09T04:51:57.937Z,78.02
2022-10-09T04:53:00.019Z,78.05
2022-10-09T04:54:02.095Z,78.25
2022-10-09T04:55:04.292Z,78.20
2022-10-09T04:56:09.077Z,78.26
2022-10-09T04:57:11.260Z,78.33
2022-10-09T04:58:13.913Z,78.40
2022-10-09T04:59:15.847Z,78.43
2022-10-09T05:00:18.004Z,78.21
2022-10-09T05:01:22.960Z,78.32
2022-10-09T05:02:24.976Z,78.07
2022-10-09T05:03:27.065Z,78.10
2022-10-09T05:04:29.037Z,77.80
2022-10-09T05:05:31.914Z,77.71
2022-10-09T05:06:33.985Z,77.81
2022-10-09T05:07:35.797Z,77.76
2022-10-09T05:08:38.678Z,77.74
2022-10-09T05:09:40.519Z,77.86
2022-10-09T05:10:42.362Z,77.81
2022-10-09T05:11:44.135Z,77.70
2022-10-09T05:12:46.535Z,77.66
2022-10-09T05:13:54.515Z,77.69
2022-10-09T05:14:56.457Z,77.68
2022-10-09T05:16:05.886Z,77.57
2022-10-09T05:17:14.087Z,77.64
2022-10-09T05:18:16.941Z,77.79
2022-10-09T05:19:18.904Z,77.89
2022-10-09T05:20:21.086Z,77.93
2022-10-09T05:21:23.971Z,77.83
2022-10-09T05:22:25.809Z,77.73
2022-10-09T05:23:27.686Z,77.73
2022-10-09T05:24:29.622Z,77.69
2022-10-09T05:25:32.224Z,77.80
2022-10-09T05:26:36.052Z,77.72
2022-10-09T05:27:38.006Z,77.62
2022-10-09T05:28:39.966Z,77.62
2022-10-09T05:29:41.942Z,77.75
2022-10-09T05:30:44.517Z,77.81
2022-10-09T05:31:49.508Z,77.85
2022-10-09T05:32:51.837Z,77.82
2022-10-09T05:33:55.912Z,77.95
2022-10-09T05:34:57.785Z,77.98
2022-10-09T05:36:01.673Z,78.16
2022-10-09T05:37:03.498Z,78.03
2022-10-09T05:38:05.645Z,77.88
2022-10-09T05:39:07.628Z,77.91
2022-10-09T05:40:09.738Z,77.83
2022-10-09T05:41:48.586Z,77.93
2022-10-09T05:43:33.676Z,78.14
2022-10-09T05:44:38.638Z,78.13
2022-10-09T05:45:40.555Z,78.28
2022-10-09T05:46:42.523Z,78.54
2022-10-09T05:47:45.617Z,78.90
2022-10-09T05:48:55.377Z,78.62
2022-10-09T05:49:57.864Z,78.78
2022-10-09T05:51:21.312Z,78.65
2022-10-09T05:52:23.092Z,78.66
2022-10-09T05:53:25.236Z,78.64
2022-10-09T05:54:28.248Z,78.59
2022-10-09T05:55:30.106Z,78.93
2022-10-09T05:56:36.772Z,78.76
2022-10-09T05:57:38.570Z,78.78
2022-10-09T05:58:41.544Z,78.70
2022-10-09T05:59:44.703Z,78.94
2022-10-09T06:00:46.540Z,78.97
2022-10-09T06:01:51.115Z,79.05
2022-10-09T06:02:53.546Z,78.84
2022-10-09T06:03:57.889Z,79.05
2022-10-09T06:04:59.769Z,78.86
2022-10-09T06:06:06.550Z,79.03
2022-10-09T06:07:10.186Z,79.10
2022-10-09T06:08:11.947Z,79.04
2022-10-09T06:09:16.516Z,79.43
2022-10-09T06:10:18.462Z,79.29
2022-10-09T06:11:24.470Z,79.31
2022-10-09T06:12:26.164Z,79.28
2022-10-09T06:13:27.948Z,79.56
2022-10-09T06:14:29.880Z,79.39
2022-10-09T06:15:31.672Z,79.21
2022-10-09T06:16:36.132Z,79.36
2022-10-09T06:17:37.902Z,79.27
2022-10-09T06:18:45.457Z,79.44
2022-10-09T06:19:50.259Z,79.33
2022-10-09T06:20:54.177Z,79.65
2022-10-09T06:21:56.015Z,79.83
2022-10-09T06:22:57.930Z,80.58
2022-10-09T06:24:02.374Z,80.24
2022-10-09T06:25:04.540Z,80.24
2022-10-09T06:26:09.699Z,80.30
2022-10-09T06:27:13.190Z,80.44
2022-10-09T06:28:15.046Z,80.61
2022-10-09T06:29:16.918Z,80.85
2022-10-09T06:30:18.818Z,81.29
2022-10-09T06:31:23.221Z,81.41
2022-10-09T06:32:30.310Z,81.44
2022-10-09T06:33:37.702Z,81.44
2022-10-09T06:34:39.826Z,81.44
2022-10-09T06:35:43.828Z,81.70
2022-10-09T06:36:45.611Z,81.97
2022-10-09T06:37:47.492Z,82.28
2022-10-09T06:38:49.667Z,82.27
2022-10-09T06:39:51.381Z,82.32
2022-10-09T06:40:53.399Z,82.19
2022-10-09T06:41:55.175Z,82.15
2022-10-09T06:43:12.157Z,82.11
2022-10-09T06:44:16.973Z,82.16
2022-10-09T06:45:19.364Z,82.22
2022-10-09T06:46:23.886Z,82.28
2022-10-09T06:47:25.934Z,83.09
2022-10-09T06:48:31.499Z,82.57
2022-10-09T06:49:35.549Z,83.06
2022-10-09T06:50:40.024Z,83.59
2022-10-09T06:51:41.944Z,83.45
2022-10-09T06:52:43.751Z,83.24
2022-10-09T06:53:48.652Z,83.53
2022-10-09T06:54:50.469Z,83.67
2022-10-09T06:55:53.654Z,83.31
2022-10-09T06:56:55.535Z,83.54
2022-10-09T06:57:57.448Z,83.35
2022-10-09T06:59:01.183Z,83.29
2022-10-09T07:00:04.556Z,83.84
2022-10-09T07:01:10.332Z,83.36
2022-10-09T07:02:12.375Z,83.32
2022-10-09T07:03:14.861Z,83.52
2022-10-09T07:04:18.233Z,82.82
2022-10-09T07:05:20.172Z,81.65
2022-10-09T07:06:25.058Z,80.78
2022-10-09T07:07:27.884Z,80.15
2022-10-09T07:08:29.838Z,79.40
2022-10-09T07:09:37.736Z,78.71
2022-10-09T07:10:39.536Z,77.76
2022-10-09T07:11:48.440Z,77.17
2022-10-09T07:12:50.581Z,75.22
2022-10-09T07:13:54.818Z,75.04
2022-10-09T07:14:59.962Z,74.05
2022-10-09T07:16:04.861Z,73.04
2022-10-09T07:17:07.155Z,71.98
2022-10-09T07:18:09.055Z,71.19
2022-10-09T07:19:12.666Z,69.96
2022-10-09T07:20:15.855Z,68.92
2022-10-09T07:21:17.922Z,69.29
2022-10-09T07:22:23.579Z,66.80
2022-10-09T07:23:30.241Z,67.62
2022-10-09T07:24:32.198Z,66.05
2022-10-09T07:25:38.157Z,65.54
2022-10-09T07:26:44.367Z,65.70
2022-10-09T07:27:46.468Z,64.19
2022-10-09T07:28:49.431Z,63.61
2022-10-09T07:29:51.478Z,63.15
2022-10-09T07:30:53.551Z,62.56
2022-10-09T07:31:55.478Z,62.29
2022-10-09T07:32:59.547Z,61.94
2022-10-09T07:34:02.309Z,60.35
2022-10-09T07:35:05.366Z,60.21
2022-10-09T07:36:08.912Z,60.73
2022-10-09T07:37:10.718Z,58.49
2022-10-09T07:38:12.577Z,58.40
2022-10-09T07:39:15.443Z,59.12
2022-10-09T07:40:17.379Z,58.62
2022-10-09T07:41:20.550Z,56.95
2022-10-09T07:42:22.425Z,57.15
2022-10-09T07:43:24.327Z,58.89
2022-10-09T07:44:26.423Z,57.23
2022-10-09T07:45:28.239Z,55.69
2022-10-09T07:46:33.663Z,54.58
2022-10-09T07:47:36.181Z,54.61
2022-10-09T07:48:38.916Z,54.89
2022-10-09T07:49:40.776Z,53.61
2022-10-09T07:50:42.564Z,54.28
2022-10-09T07:51:44.862Z,53.23
2022-10-09T07:52:47.012Z,54.58
2022-10-09T07:53:49.382Z,51.38
2022-10-09T07:54:51.233Z,53.07
2022-10-09T07:55:53.121Z,53.33
2022-10-09T07:56:54.954Z,52.78
2022-10-09T07:58:00.910Z,52.38
2022-10-09T07:59:14.410Z,52.41
2022-10-09T08:00:19.078Z,50.84
2022-10-09T08:01:24.142Z,50.81
2022-10-09T08:02:30.778Z,50.77
2022-10-09T08:03:34.331Z,50.32
2022-10-09T08:04:36.991Z,49.66
2022-10-09T08:05:38.956Z,49.45
2022-10-09T08:06:43.169Z,48.87
2022-10-09T08:07:45.030Z,48.48
2022-10-09T08:08:53.897Z,47.59
2022-10-09T08:09:56.117Z,47.62
2022-10-09T08:10:58.344Z,49.34
2022-10-09T08:12:00.302Z,49.00
2022-10-09T08:13:02.293Z,48.83
2022-10-09T08:14:14.137Z,48.89
2022-10-09T08:15:18.853Z,48.78
2022-10-09T08:16:22.252Z,49.32
2022-10-09T08:17:24.082Z,48.40
2022-10-09T08:18:25.832Z,48.12
2022-10-09T08:19:27.976Z,47.57
2022-10-09T08:20:29.775Z,49.06
2022-10-09T08:21:32.390Z,48.82
2022-10-09T08:22:34.174Z,49.07
2022-10-09T08:23:36.230Z,48.62
2022-10-09T08:24:39.332Z,48.40
2022-10-09T08:25:42.456Z,48.20
2022-10-09T08:26:44.437Z,48.07
2022-10-09T08:27:46.217Z,47.82
2022-10-09T08:29:02.319Z,47.98
2022-10-09T08:30:04.642Z,48.38
2022-10-09T08:31:11.609Z,48.07
2022-10-09T08:32:13.653Z,46.21
2022-10-09T08:33:19.735Z,47.50
2022-10-09T08:34:21.697Z,47.86
2022-10-09T08:35:23.691Z,48.03
2022-10-09T08:36:26.081Z,47.21
2022-10-09T08:37:28.553Z,46.48
2022-10-09T08:38:46.746Z,47.69
2022-10-09T08:39:52.118Z,48.14
2022-10-09T08:41:02.696Z,48.39
2022-10-09T08:42:05.637Z,48.74
2022-10-09T08:43:14.687Z,48.59
2022-10-09T08:44:26.129Z,48.55
2022-10-09T08:45:28.133Z,48.92
2022-10-09T08:46:52.909Z,48.47
2022-10-09T08:48:00.698Z,48.43
2022-10-09T08:49:06.146Z,48.07
2022-10-09T08:50:18.161Z,48.11
2022-10-09T08:51:36.260Z,48.68
2022-10-09T08:52:45.748Z,48.88
2022-10-09T08:54:06.387Z,48.07
2022-10-09T08:55:27.909Z,48.29
2022-10-09T08:56:30.146Z,48.88
2022-10-09T08:57:33.826Z,48.75
2022-10-09T08:58:39.267Z,48.52
2022-10-09T08:59:42.184Z,48.93
2022-10-09T09:00:58.340Z,49.17
2022-10-09T09:02:09.105Z,47.76
2022-10-09T09:03:13.958Z,48.41
2022-10-09T09:04:25.009Z,48.17
2022-10-09T09:05:26.684Z,48.89
2022-10-09T09:06:45.278Z,49.19
2022-10-09T09:08:16.546Z,49.03
2022-10-09T09:09:30.207Z,49.64
2022-10-09T09:10:40.366Z,49.97
2022-10-09T09:11:57.807Z,49.55
2022-10-09T09:13:15.739Z,49.50
2022-10-09T09:14:43.288Z,49.74
2022-10-09T09:15:58.795Z,49.65
2022-10-09T09:17:08.083Z,50.02
2022-10-09T09:18:31.556Z,50.26
2022-10-09T09:20:03.570Z,50.05
2022-10-09T09:21:15.671Z,49.74
2022-10-09T09:22:17.562Z,49.24
2022-10-09T09:23:27.506Z,48.54
2022-10-09T09:24:41.929Z,47.84
2022-10-09T09:25:45.643Z,48.87
2022-10-09T09:26:51.500Z,48.91
2022-10-09T09:28:01.782Z,48.61
2022-10-09T09:29:04.725Z,48.63
2022-10-09T09:30:12.385Z,48.35
2022-10-09T09:31:36.691Z,48.24
2022-10-09T09:33:10.817Z,48.92
2022-10-09T09:34:21.314Z,49.07
2022-10-09T09:35:39.244Z,49.46
2022-10-09T09:37:00.289Z,48.60
2022-10-09T09:38:02.179Z,49.32
2022-10-09T09:40:36.636Z,48.29
2022-10-09T09:41:41.336Z,48.37
2022-10-09T09:42:43.590Z,48.43
2022-10-09T09:43:45.554Z,48.14
2022-10-09T09:44:55.710Z,48.70
2022-10-09T09:46:03.309Z,48.80
2022-10-09T09:47:15.093Z,47.85
2022-10-09T09:48:22.153Z,48.79
2022-10-09T09:49:27.164Z,47.98
2022-10-09T09:50:48.468Z,48.40
2022-10-09T09:51:53.953Z,47.71
2022-10-09T09:52:56.646Z,47.72
2022-10-09T09:54:06.843Z,48.43
2022-10-09T09:55:24.386Z,48.74
2022-10-09T09:58:15.976Z,48.75
2022-10-09T09:59:29.250Z,48.89
2022-10-09T10:00:31.609Z,48.67
2022-10-09T10:01:34.382Z,47.82
2022-10-09T10:02:36.727Z,47.90
2022-10-09T10:03:49.542Z,47.44
2022-10-09T10:04:58.353Z,47.34
2022-10-09T10:06:00.685Z,46.61
2022-10-09T10:07:02.751Z,46.39
2022-10-09T10:08:26.196Z,46.32
2022-10-09T10:09:28.335Z,46.48
2022-10-09T10:10:30.376Z,46.79
2022-10-09T10:11:35.161Z,46.41
2022-10-09T10:12:46.113Z,46.27
2022-10-09T10:13:52.027Z,46.27
2022-10-09T10:14:53.924Z,45.55
2022-10-09T10:15:57.320Z,45.56
2022-10-09T10:17:00.608Z,45.48
2022-10-09T10:18:14.926Z,45.12
2022-10-09T10:19:24.230Z,44.75
2022-10-09T10:20:28.440Z,44.67
2022-10-09T10:21:40.281Z,44.43
2022-10-09T10:22:50.379Z,44.17
2022-10-09T10:25:04.597Z,44.29
2022-10-09T10:26:28.396Z,44.51
2022-10-09T10:27:34.784Z,44.50
2022-10-09T10:29:20.688Z,44.41
2022-10-09T10:30:22.879Z,45.35
2022-10-09T10:31:47.776Z,44.70
2022-10-09T10:33:05.023Z,44.81
2022-10-09T10:34:16.490Z,44.39
2022-10-09T10:37:43.921Z,45.26
2022-10-09T10:38:59.953Z,45.29
2022-10-09T10:40:21.753Z,44.91
2022-10-09T10:41:30.036Z,44.24
2022-10-09T10:42:58.635Z,43.49
2022-10-09T10:44:30.469Z,43.48
2022-10-09T10:45:56.437Z,43.66
2022-10-09T10:47:04.342Z,44.54
2022-10-09T10:48:12.764Z,43.99
2022-10-09T10:49:20.584Z,44.10
2022-10-09T10:50:28.813Z,44.46
2022-10-09T10:51:38.600Z,43.77
2022-10-09T10:52:40.343Z,43.75
2022-10-09T10:54:03.944Z,43.12
2022-10-09T10:55:15.173Z,43.88
2022-10-09T10:56:28.230Z,43.68
2022-10-09T10:57:46.970Z,44.16
2022-10-09T10:59:18.752Z,44.13
2022-10-09T11:00:20.876Z,42.79
2022-10-09T11:02:10.788Z,42.78
2022-10-09T11:03:42.255Z,42.14
2022-10-09T11:04:49.732Z,42.61
2022-10-09T11:06:18.896Z,42.64
2022-10-09T11:07:48.464Z,41.76
2022-10-09T11:09:20.870Z,41.53
2022-10-09T11:10:55.951Z,41.84
2022-10-09T11:12:43.443Z,43.14
2022-10-09T11:13:53.023Z,43.42
2022-10-09T11:15:06.321Z,43.08
2022-10-09T11:16:35.446Z,42.29
2022-10-09T11:18:02.760Z,42.35
2022-10-09T11:19:30.824Z,42.43
2022-10-09T11:20:41.850Z,41.92
2022-10-09T11:22:02.326Z,41.98
2022-10-09T11:23:27.663Z,42.35
2022-10-09T11:24:58.991Z,42.46
2022-10-09T11:26:28.437Z,42.57
2022-10-09T11:27:39.483Z,42.15
2022-10-09T11:29:06.052Z,42.42
2022-10-09T11:30:13.002Z,42.99
2022-10-09T11:31:47.055Z,42.42
2022-10-09T11:33:30.569Z,41.39
2022-10-09T11:34:39.062Z,41.74
2022-10-09T11:35:46.414Z,42.69
2022-10-09T11:36:48.267Z,42.20
2022-10-09T11:38:23.751Z,41.88
2022-10-09T11:39:30.357Z,42.15
2022-10-09T11:40:36.211Z,42.09
2022-10-09T11:41:38.558Z,42.14
2022-10-09T11:42:41.206Z,41.28
2022-10-09T11:43:49.054Z,40.85
2022-10-09T11:44:59.928Z,41.47
2022-10-09T11:46:26.754Z,41.93
2022-10-09T11:47:44.487Z,42.04
2022-10-09T11:48:59.338Z,41.78
2022-10-09T11:50:17.473Z,41.30
2022-10-09T11:51:34.458Z,41.06
2022-10-09T11:52:58.056Z,41.52
2022-10-09T11:54:05.122Z,42.69
2022-10-09T11:55:18.587Z,42.58
2022-10-09T11:56:22.194Z,41.72
2022-10-09T11:57:28.760Z,41.23
2022-10-09T11:58:30.687Z,40.78
2022-10-09T11:59:35.964Z,41.13
2022-10-09T12:00:37.876Z,40.54
2022-10-09T12:01:45.394Z,40.05
2022-10-09T12:02:59.392Z,39.51
2022-10-09T12:04:08.326Z,39.62
2022-10-09T12:05:35.046Z,39.53
2022-10-09T12:06:47.289Z,39.53
2022-10-09T12:07:49.201Z,39.77
2022-10-09T12:08:57.913Z,39.78
2022-10-09T12:10:20.762Z,39.76
2022-10-09T12:11:23.734Z,39.76
2022-10-09T12:12:25.915Z,39.64
2022-10-09T12:13:36.884Z,39.73
2022-10-09T12:14:38.734Z,38.90
2022-10-09T12:15:49.501Z,39.04
2022-10-09T12:16:51.907Z,38.98
2022-10-09T12:17:53.925Z,38.78
2022-10-09T12:18:57.998Z,39.33
2022-10-09T12:20:16.942Z,39.31
2022-10-09T12:21:25.920Z,38.96
2022-10-09T12:22:31.722Z,38.86
2022-10-09T12:23:37.071Z,39.36
2022-10-09T12:24:44.124Z,39.79
2022-10-09T12:25:46.215Z,39.47
2022-10-09T12:26:50.432Z,39.79
2022-10-09T12:27:55.452Z,39.62
2022-10-09T12:29:02.450Z,39.76
2022-10-09T12:30:14.301Z,39.63
2022-10-09T12:31:38.645Z,39.67
2022-10-09T12:32:54.945Z,39.20
2022-10-09T12:34:12.500Z,38.79
2022-10-09T12:35:28.222Z,38.47
2022-10-09T12:36:33.605Z,38.05
2022-10-09T12:37:35.937Z,37.71
2022-10-09T12:38:38.047Z,37.41
2022-10-09T12:39:40.508Z,37.81
2022-10-09T12:40:46.274Z,37.50
2022-10-09T12:41:58.520Z,37.10
2022-10-09T12:43:15.955Z,37.32
2022-10-09T12:44:33.410Z,38.42
2022-10-09T12:45:43.345Z,38.74
2022-10-09T12:46:46.855Z,38.18
2022-10-09T12:48:04.405Z,38.07
2022-10-09T12:49:20.379Z,37.92
2022-10-09T12:50:25.661Z,37.24
2022-10-09T12:51:30.516Z,37.52
2022-10-09T12:52:32.447Z,37.83
2022-10-09T12:53:34.204Z,38.68
2022-10-09T12:54:44.440Z,39.30
2022-10-09T12:56:11.121Z,39.92
2022-10-09T12:57:15.968Z,39.96
2022-10-09T12:58:25.075Z,39.63
2022-10-09T12:59:28.883Z,39.24
2022-10-09T13:00:32.699Z,39.54
2022-10-09T13:01:35.393Z,40.15
2022-10-09T13:02:37.452Z,40.34
2022-10-09T13:03:43.238Z,40.62
2022-10-09T13:04:57.279Z,40.92
2022-10-09T13:06:00.002Z,41.23
2022-10-09T13:07:07.004Z,41.54
2022-10-09T13:08:27.686Z,41.62
2022-10-09T13:09:40.122Z,42.11
2022-10-09T13:10:42.035Z,42.12
2022-10-09T13:11:44.553Z,41.90
2022-10-09T13:12:55.330Z,42.25
2022-10-09T13:13:58.052Z,42.63
2022-10-09T13:15:26.646Z,42.27
2022-10-09T13:16:41.130Z,41.79
2022-10-09T13:17:43.043Z,41.96
2022-10-09T13:19:02.645Z,42.66
2022-10-09T13:20:23.726Z,43.02
2022-10-09T13:21:35.148Z,42.60
2022-10-09T13:22:38.421Z,43.20
2022-10-09T13:23:40.229Z,42.61
2022-10-09T13:24:42.481Z,42.71
2022-10-09T13:25:48.457Z,42.25
2022-10-09T13:26:50.211Z,41.55
2022-10-09T13:27:52.482Z,41.43
2022-10-09T13:28:56.640Z,41.84
2022-10-09T13:29:59.971Z,42.34
2022-10-09T13:31:08.218Z,42.17
2022-10-09T13:32:14.811Z,42.17
2022-10-09T13:33:16.752Z,42.82
2022-10-09T13:34:18.901Z,42.60
2022-10-09T13:35:20.979Z,42.30
2022-10-09T13:36:22.739Z,41.98
2022-10-09T13:37:25.933Z,42.47
2022-10-09T13:38:31.380Z,42.42
2022-10-09T13:39:36.094Z,42.09
2022-10-09T13:40:38.673Z,42.36
2022-10-09T13:41:42.466Z,42.69
2022-10-09T13:42:52.567Z,42.42
2022-10-09T13:43:54.545Z,42.55
2022-10-09T13:44:56.525Z,42.52
2022-10-09T13:45:58.760Z,42.42
2022-10-09T13:47:01.032Z,42.59
2022-10-09T13:48:02.909Z,42.32
2022-10-09T13:49:04.836Z,42.31
2022-10-09T13:50:07.199Z,42.18
2022-10-09T13:51:09.499Z,42.07
2022-10-09T13:52:11.491Z,42.28
2022-10-09T13:53:13.418Z,42.06
2022-10-09T13:54:15.420Z,42.22
2022-10-09T13:55:17.261Z,42.24
2022-10-09T13:56:19.222Z,42.19
2022-10-09T13:57:21.062Z,42.03
2022-10-09T13:58:25.873Z,42.20
2022-10-09T13:59:28.070Z,42.39
2022-10-09T14:00:29.859Z,42.45
2022-10-09T14:01:33.353Z,42.83
2022-10-09T14:02:35.257Z,43.08
2022-10-09T14:03:37.112Z,43.42
2022-10-09T14:04:39.448Z,43.77
2022-10-09T14:05:41.598Z,44.13
2022-10-09T14:06:43.895Z,44.50
2022-10-09T14:07:45.754Z,44.72
2022-10-09T14:08:48.788Z,44.43
2022-10-09T14:09:50.624Z,43.77
2022-10-09T14:10:52.715Z,43.93
2022-10-09T14:11:54.766Z,43.84
2022-10-09T14:12:56.811Z,43.78
2022-10-09T14:13:59.258Z,43.77
2022-10-09T14:15:01.077Z,43.73
2022-10-09T14:16:05.611Z,43.90
2022-10-09T14:17:07.632Z,43.97
2022-10-09T14:18:09.531Z,44.16
2022-10-09T14:19:11.361Z,44.23
2022-10-09T14:20:13.726Z,44.16
2022-10-09T14:21:15.872Z,44.18
2022-10-09T14:22:18.080Z,44.51
2022-10-09T14:23:19.856Z,44.13
2022-10-09T14:24:21.777Z,43.98
2022-10-09T14:25:23.778Z,43.98
2022-10-09T14:26:27.027Z,44.03
2022-10-09T14:27:29.300Z,43.83